createdAt,value
2023-02-19T00:00:10.782Z,9.80
2023-02-19T00:01:17.758Z,9.70
2023-02-19T00:02:19.539Z,9.70
2023-02-19T00:03:21.333Z,9.70
2023-02-19T00:04:23.667Z,9.70
2023-02-19T00:05:25.368Z,9.60
2023-02-19T00:06:29.955Z,9.70
2023-02-19T00:07:31.749Z,9.70
2023-02-19T00:08:34.625Z,9.70
2023-02-19T00:09:36.341Z,9.70
2023-02-19T00:10:38.091Z,9.70
2023-02-19T00:11:39.878Z,9.70
2023-02-19T00:12:41.610Z,9.70
2023-02-19T00:13:45.889Z,9.70
2023-02-19T00:14:47.608Z,9.70
2023-02-19T00:15:49.392Z,9.60
2023-02-19T00:16:51.168Z,9.60
2023-02-19T00:17:52.824Z,9.60
2023-02-19T00:18:56.510Z,9.60
2023-02-19T00:19:58.222Z,9.70
2023-02-19T00:21:00.015Z,9.60
2023-02-19T00:22:01.717Z,9.60
2023-02-19T00:23:03.427Z,9.60
2023-02-19T00:24:07.255Z,9.60
2023-02-19T00:25:08.969Z,9.60
2023-02-19T00:26:18.591Z,9.60
2023-02-19T00:27:20.669Z,9.60
2023-02-19T00:28:22.971Z,9.60
2023-02-19T00:29:25.143Z,9.60
2023-02-19T00:30:26.978Z,9.60
2023-02-19T00:31:33.725Z,9.60
2023-02-19T00:32:35.509Z,9.60
2023-02-19T00:33:37.180Z,9.60
2023-02-19T00:34:38.913Z,9.60
2023-02-19T00:35:40.658Z,9.60
2023-02-19T00:36:43.384Z,9.50
2023-02-19T00:37:46.062Z,9.50
2023-02-19T00:38:48.174Z,9.50
2023-02-19T00:39:49.974Z,9.50
2023-02-19T00:40:51.677Z,9.50
2023-02-19T00:41:53.455Z,9.50
2023-02-19T00:42:55.325Z,9.50
2023-02-19T00:44:01.169Z,9.50
2023-02-19T00:45:02.998Z,9.50
2023-02-19T00:46:04.904Z,9.40
2023-02-19T00:47:06.882Z,9.40
2023-02-19T00:48:08.625Z,9.40
2023-02-19T00:49:23.278Z,9.30
2023-02-19T00:50:24.963Z,9.40
2023-02-19T00:51:30.656Z,9.40
2023-02-19T00:52:32.354Z,9.40
2023-02-19T00:53:34.037Z,9.40
2023-02-19T00:54:35.696Z,9.40
2023-02-19T00:55:37.481Z,9.40
2023-02-19T00:56:39.369Z,9.50
2023-02-19T00:57:41.111Z,9.50
2023-02-19T00:58:42.913Z,9.60
2023-02-19T00:59:44.612Z,9.50
2023-02-19T01:00:46.513Z,9.60
2023-02-19T01:01:49.576Z,9.60
2023-02-19T01:02:51.409Z,9.70
2023-02-19T01:03:53.121Z,9.70
2023-02-19T01:04:54.911Z,9.80
2023-02-19T01:05:56.707Z,9.90
2023-02-19T01:06:58.461Z,9.90
2023-02-19T01:08:00.177Z,10.00
2023-02-19T01:09:02.538Z,9.90
2023-02-19T01:10:05.091Z,9.90
2023-02-19T01:11:08.924Z,9.90
2023-02-19T01:12:10.955Z,9.90
2023-02-19T01:13:12.911Z,9.90
2023-02-19T01:14:14.689Z,9.90
2023-02-19T01:15:16.419Z,9.90
2023-02-19T01:16:21.175Z,9.90
2023-02-19T01:17:22.984Z,9.90
2023-02-19T01:18:24.701Z,9.90
2023-02-19T01:19:26.459Z,9.90
2023-02-19T01:20:28.372Z,9.90
2023-02-19T01:21:31.275Z,9.90
2023-02-19T01:22:32.968Z,10.00
2023-02-19T01:23:35.505Z,10.00
2023-02-19T01:24:37.251Z,10.00
2023-02-19T01:25:42.399Z,10.00
2023-02-19T01:26:44.169Z,10.20
2023-02-19T01:27:46.069Z,10.10
2023-02-19T01:28:48.435Z,10.30
2023-02-19T01:29:50.181Z,10.20
2023-02-19T01:30:51.861Z,10.20
2023-02-19T01:31:53.589Z,10.20
2023-02-19T01:32:55.354Z,10.30
2023-02-19T01:34:00.731Z,10.30
2023-02-19T01:35:02.638Z,10.30
2023-02-19T01:36:06.789Z,10.40
2023-02-19T01:37:11.972Z,10.40
2023-02-19T01:38:13.860Z,10.40
2023-02-19T01:39:15.639Z,10.40
2023-02-19T01:40:17.510Z,10.40
2023-02-19T01:41:21.955Z,10.40
2023-02-19T01:42:23.782Z,10.40
2023-02-19T01:43:25.942Z,10.40
2023-02-19T01:44:27.643Z,10.30
2023-02-19T01:45:38.684Z,10.30
2023-02-19T01:46:42.281Z,10.30
2023-02-19T01:47:44.737Z,10.40
2023-02-19T01:48:47.309Z,10.40
2023-02-19T01:49:56.107Z,10.40
2023-02-19T01:51:05.647Z,10.40
2023-02-19T01:52:21.457Z,10.50
2023-02-19T01:53:27.050Z,10.50
2023-02-19T01:54:32.985Z,10.50
2023-02-19T01:55:35.733Z,10.50
2023-02-19T01:56:39.856Z,10.50
2023-02-19T01:57:48.206Z,10.50
2023-02-19T01:58:50.117Z,10.50
2023-02-19T01:59:57.126Z,10.50
2023-02-19T02:01:00.471Z,10.50
2023-02-19T02:02:02.427Z,10.50
2023-02-19T02:03:05.220Z,10.50
2023-02-19T02:04:08.811Z,10.50
2023-02-19T02:05:20.154Z,10.50
2023-02-19T02:06:26.184Z,10.50
2023-02-19T02:07:46.552Z,10.60
2023-02-19T02:09:09.827Z,10.60
2023-02-19T02:10:21.207Z,10.50
2023-02-19T02:11:23.095Z,10.50
2023-02-19T02:12:24.874Z,10.60
2023-02-19T02:13:27.015Z,10.60
2023-02-19T02:14:34.075Z,10.60
2023-02-19T02:15:51.626Z,10.60
2023-02-19T02:17:11.890Z,10.60
2023-02-19T02:18:27.186Z,10.60
2023-02-19T02:19:50.139Z,10.50
2023-02-19T02:21:06.441Z,10.60
2023-02-19T02:22:35.569Z,10.50
2023-02-19T02:24:11.720Z,10.60
2023-02-19T02:25:22.260Z,10.60
2023-02-19T02:26:55.828Z,10.50
2023-02-19T02:28:35.523Z,10.60
2023-02-19T02:30:22.028Z,10.60
2023-02-19T02:31:39.324Z,10.60
2023-02-19T02:32:53.552Z,10.60
2023-02-19T02:34:07.055Z,10.50
2023-02-19T02:35:12.083Z,10.50
2023-02-19T02:36:29.991Z,10.50
2023-02-19T02:37:35.793Z,10.50
2023-02-19T02:38:40.993Z,10.50
2023-02-19T02:39:45.653Z,10.40
2023-02-19T02:40:48.438Z,10.30
2023-02-19T02:42:14.941Z,10.30
2023-02-19T02:43:16.673Z,10.30
2023-02-19T02:44:18.386Z,10.20
2023-02-19T02:45:35.232Z,10.20
2023-02-19T02:46:41.189Z,10.20
2023-02-19T02:47:44.969Z,10.20
2023-02-19T02:48:54.110Z,10.20
2023-02-19T02:50:07.221Z,10.10
2023-02-19T02:51:31.664Z,10.10
2023-02-19T02:52:57.633Z,10.10
2023-02-19T02:54:21.890Z,10.10
2023-02-19T02:55:25.604Z,10.10
2023-02-19T02:56:28.576Z,10.10
2023-02-19T02:57:30.369Z,10.10
2023-02-19T02:58:33.975Z,10.10
2023-02-19T02:59:40.850Z,10.10
2023-02-19T03:01:04.074Z,10.10
2023-02-19T03:02:18.864Z,10.10
2023-02-19T03:03:24.379Z,10.10
2023-02-19T03:04:59.616Z,10.10
2023-02-19T03:06:06.649Z,10.10
2023-02-19T03:07:10.094Z,10.10
2023-02-19T03:08:27.047Z,10.10
2023-02-19T03:09:40.381Z,10.10
2023-02-19T03:11:20.562Z,10.10
2023-02-19T03:12:42.849Z,10.10
2023-02-19T03:14:03.353Z,10.10
2023-02-19T03:15:30.293Z,10.20
2023-02-19T03:16:54.851Z,10.10
2023-02-19T03:18:19.767Z,10.10
2023-02-19T03:19:25.540Z,10.10
2023-02-19T03:20:27.652Z,10.10
2023-02-19T03:21:29.659Z,10.10
2023-02-19T03:22:36.049Z,10.10
2023-02-19T03:23:57.590Z,10.10
2023-02-19T03:25:24.128Z,10.10
2023-02-19T03:26:27.035Z,10.10
2023-02-19T03:27:32.454Z,10.00
2023-02-19T03:28:56.523Z,9.90
2023-02-19T03:30:02.540Z,9.90
2023-02-19T03:31:04.489Z,10.00
2023-02-19T03:32:18.285Z,9.90
2023-02-19T03:33:24.660Z,9.90
2023-02-19T03:34:31.040Z,9.80
2023-02-19T03:35:37.751Z,9.80
2023-02-19T03:36:54.598Z,9.80
2023-02-19T03:38:18.421Z,9.70
2023-02-19T03:39:23.309Z,9.70
2023-02-19T03:40:28.352Z,9.70
2023-02-19T03:41:35.640Z,9.60
2023-02-19T03:42:56.248Z,9.60
2023-02-19T03:44:21.960Z,9.60
2023-02-19T03:45:35.904Z,9.50
2023-02-19T03:47:08.825Z,9.50
2023-02-19T03:48:29.996Z,9.50
2023-02-19T03:49:51.821Z,9.50
2023-02-19T03:51:21.084Z,9.40
2023-02-19T03:52:34.634Z,9.40
2023-02-19T03:54:06.588Z,9.40
2023-02-19T03:55:27.982Z,9.40
2023-02-19T03:56:40.986Z,9.40
2023-02-19T03:57:54.567Z,9.40
2023-02-19T03:59:10.282Z,9.30
2023-02-19T04:00:26.764Z,9.30
2023-02-19T04:01:50.612Z,9.30
2023-02-19T04:03:20.263Z,9.30
2023-02-19T04:04:32.253Z,9.30
2023-02-19T04:05:39.924Z,9.30
2023-02-19T04:06:44.424Z,9.30
2023-02-19T04:07:49.813Z,9.20
2023-02-19T04:08:56.066Z,9.30
2023-02-19T04:09:57.891Z,9.30
2023-02-19T04:11:00.167Z,9.20
2023-02-19T04:12:02.783Z,9.20
2023-02-19T04:13:11.709Z,9.20
2023-02-19T04:14:19.315Z,9.20
2023-02-19T04:15:25.322Z,9.20
2023-02-19T04:16:30.045Z,9.20
2023-02-19T04:17:36.135Z,9.30
2023-02-19T04:18:42.812Z,9.20
2023-02-19T04:19:48.085Z,9.20
2023-02-19T04:20:50.906Z,9.20
2023-02-19T04:21:55.122Z,9.20
2023-02-19T04:22:57.818Z,9.20
2023-02-19T04:24:03.157Z,9.10
2023-02-19T04:25:05.382Z,9.20
2023-02-19T04:26:08.252Z,9.10
2023-02-19T04:27:10.943Z,9.10
2023-02-19T04:28:16.565Z,9.10
2023-02-19T04:29:18.288Z,9.10
2023-02-19T04:30:21.295Z,9.10
2023-02-19T04:31:23.960Z,9.10
2023-02-19T04:32:25.663Z,9.10
2023-02-19T04:33:27.456Z,9.10
2023-02-19T04:34:29.168Z,9.10
2023-02-19T04:35:30.947Z,9.10
2023-02-19T04:36:33.434Z,9.10
2023-02-19T04:37:35.193Z,9.10
2023-02-19T04:38:38.675Z,9.10
2023-02-19T04:39:40.653Z,9.10
2023-02-19T04:40:42.569Z,9.10
2023-02-19T04:41:44.349Z,9.10
2023-02-19T04:42:46.020Z,9.10
2023-02-19T04:43:47.718Z,9.10
2023-02-19T04:44:49.496Z,9.10
2023-02-19T04:45:51.250Z,9.10
2023-02-19T04:46:53.017Z,9.10
2023-02-19T04:47:54.782Z,9.10
2023-02-19T04:48:56.549Z,9.10
2023-02-19T04:49:58.254Z,9.10
2023-02-19T04:51:00.030Z,9.10
2023-02-19T04:52:01.801Z,9.10
2023-02-19T04:53:03.543Z,9.10
2023-02-19T04:54:05.332Z,9.10
2023-02-19T04:55:08.353Z,9.10
2023-02-19T04:56:13.570Z,9.10
2023-02-19T04:57:15.285Z,9.10
2023-02-19T04:58:16.953Z,9.10
2023-02-19T04:59:18.746Z,9.10
2023-02-19T05:00:20.579Z,9.10
2023-02-19T05:01:22.401Z,9.10
2023-02-19T05:02:24.077Z,9.10
2023-02-19T05:03:25.868Z,8.90
2023-02-19T05:04:27.617Z,9.00
2023-02-19T05:05:29.356Z,9.00
2023-02-19T05:06:31.080Z,9.00
2023-02-19T05:07:33.627Z,9.00
2023-02-19T05:08:35.962Z,9.00
2023-02-19T05:09:37.626Z,9.00
2023-02-19T05:10:39.347Z,8.90
2023-02-19T05:11:41.266Z,9.10
2023-02-19T05:12:42.948Z,8.80
2023-02-19T05:13:44.680Z,8.90
2023-02-19T05:14:46.461Z,8.80
2023-02-19T05:15:56.359Z,8.90
2023-02-19T05:16:58.167Z,8.90
2023-02-19T05:17:59.903Z,8.90
2023-02-19T05:19:01.721Z,8.90
2023-02-19T05:20:03.982Z,8.90
2023-02-19T05:21:06.141Z,8.80
2023-02-19T05:22:07.943Z,8.80
2023-02-19T05:23:09.604Z,8.80
2023-02-19T05:24:11.393Z,8.80
2023-02-19T05:25:13.075Z,8.80
2023-02-19T05:26:18.082Z,8.80
2023-02-19T05:27:19.781Z,8.80
2023-02-19T05:28:28.474Z,8.80
2023-02-19T05:29:31.812Z,8.70
2023-02-19T05:30:33.536Z,8.70
2023-02-19T05:31:35.432Z,8.70
2023-02-19T05:32:37.771Z,8.70
2023-02-19T05:33:39.744Z,8.70
2023-02-19T05:34:41.443Z,8.70
2023-02-19T05:35:49.252Z,8.70
2023-02-19T05:36:50.920Z,8.70
2023-02-19T05:37:52.652Z,8.70
2023-02-19T05:38:56.558Z,8.80
2023-02-19T05:39:58.258Z,8.80
2023-02-19T05:41:10.995Z,8.80
2023-02-19T05:42:15.285Z,8.80
2023-02-19T05:43:17.428Z,8.80
2023-02-19T05:44:19.178Z,8.80
2023-02-19T05:45:20.897Z,8.80
2023-02-19T05:46:28.188Z,8.80
2023-02-19T05:47:29.989Z,8.70
2023-02-19T05:48:32.286Z,8.80
2023-02-19T05:49:33.989Z,8.80
2023-02-19T05:50:39.444Z,8.70
2023-02-19T05:51:41.485Z,8.80
2023-02-19T05:52:44.245Z,8.80
2023-02-19T05:53:46.496Z,8.90
2023-02-19T05:54:48.205Z,8.90
2023-02-19T05:55:49.927Z,8.90
2023-02-19T05:56:51.744Z,8.90
2023-02-19T05:57:53.540Z,8.90
2023-02-19T05:58:55.766Z,8.90
2023-02-19T05:59:57.471Z,9.00
2023-02-19T06:00:59.184Z,9.00
2023-02-19T06:02:01.046Z,9.00
2023-02-19T06:03:02.921Z,9.00
2023-02-19T06:04:04.927Z,9.00
2023-02-19T06:05:07.263Z,9.00
2023-02-19T06:06:13.384Z,9.10
2023-02-19T06:07:15.056Z,9.10
2023-02-19T06:08:16.797Z,9.10
2023-02-19T06:09:18.563Z,9.10
2023-02-19T06:10:20.263Z,9.10
2023-02-19T06:11:22.356Z,9.10
2023-02-19T06:12:24.309Z,9.10
2023-02-19T06:13:25.975Z,9.00
2023-02-19T06:14:27.728Z,9.00
2023-02-19T06:15:29.537Z,9.10
2023-02-19T06:16:33.247Z,9.10
2023-02-19T06:17:35.254Z,9.10
2023-02-19T06:18:37.505Z,9.00
2023-02-19T06:19:39.352Z,9.10
2023-02-19T06:20:41.032Z,9.10
2023-02-19T06:21:42.787Z,9.10
2023-02-19T06:22:44.566Z,9.10
2023-02-19T06:23:46.737Z,9.00
2023-02-19T06:24:48.702Z,9.00
2023-02-19T06:25:50.357Z,9.00
2023-02-19T06:26:52.108Z,9.00
2023-02-19T06:27:53.807Z,9.00
2023-02-19T06:28:55.523Z,8.90
2023-02-19T06:29:57.270Z,8.90
2023-02-19T06:30:59.764Z,8.90
2023-02-19T06:32:01.649Z,8.90
2023-02-19T06:33:03.544Z,8.90
2023-02-19T06:34:05.621Z,8.90
2023-02-19T06:35:07.653Z,8.90
2023-02-19T06:36:17.162Z,8.90
2023-02-19T06:37:18.986Z,8.90
2023-02-19T06:38:24.803Z,8.90
2023-02-19T06:39:27.403Z,8.90
2023-02-19T06:40:29.420Z,8.90
2023-02-19T06:41:31.510Z,9.00
2023-02-19T06:42:33.365Z,8.90
2023-02-19T06:43:35.690Z,8.90
2023-02-19T06:44:37.499Z,8.90
2023-02-19T06:45:39.263Z,8.90
2023-02-19T06:46:41.071Z,8.90
2023-02-19T06:47:42.888Z,8.90
2023-02-19T06:48:45.606Z,8.90
2023-02-19T06:49:47.260Z,8.90
2023-02-19T06:50:49.040Z,8.80
2023-02-19T06:51:50.755Z,8.90
2023-02-19T06:52:52.455Z,8.90
2023-02-19T06:53:54.268Z,8.90
2023-02-19T06:54:55.997Z,8.90
2023-02-19T06:56:22.370Z,8.90
2023-02-19T06:57:24.044Z,8.90
2023-02-19T06:58:25.991Z,8.90
2023-02-19T06:59:27.840Z,8.90
2023-02-19T07:00:29.751Z,8.90
2023-02-19T07:01:33.675Z,8.90
2023-02-19T07:02:35.448Z,8.90
2023-02-19T07:03:37.600Z,9.00
2023-02-19T07:04:39.362Z,9.00
2023-02-19T07:05:41.069Z,9.00
2023-02-19T07:06:42.964Z,9.10
2023-02-19T07:07:46.131Z,9.00
2023-02-19T07:08:47.923Z,9.00
2023-02-19T07:09:49.646Z,9.10
2023-02-19T07:10:56.466Z,9.10
2023-02-19T07:11:58.327Z,9.10
2023-02-19T07:13:00.095Z,9.10
2023-02-19T07:14:04.061Z,9.10
2023-02-19T07:15:06.061Z,9.10
2023-02-19T07:16:09.849Z,9.10
2023-02-19T07:17:11.667Z,9.20
2023-02-19T07:18:13.353Z,9.20
2023-02-19T07:19:15.962Z,9.10
2023-02-19T07:20:17.716Z,9.10
2023-02-19T07:21:19.756Z,9.20
2023-02-19T07:22:21.471Z,9.20
2023-02-19T07:23:23.183Z,9.20
2023-02-19T07:24:24.925Z,9.20
2023-02-19T07:25:26.615Z,9.20
2023-02-19T07:26:28.414Z,9.20
2023-02-19T07:27:30.121Z,9.10
2023-02-19T07:28:31.878Z,9.10
2023-02-19T07:29:33.645Z,9.10
2023-02-19T07:30:35.617Z,9.10
2023-02-19T07:31:37.619Z,9.10
2023-02-19T07:32:42.592Z,9.10
2023-02-19T07:33:45.148Z,9.10
2023-02-19T07:34:46.816Z,9.10
2023-02-19T07:35:49.827Z,9.10
2023-02-19T07:36:51.609Z,9.10
2023-02-19T07:37:53.347Z,9.10
2023-02-19T07:38:56.846Z,9.10
2023-02-19T07:39:58.522Z,9.10
2023-02-19T07:41:03.018Z,9.10
2023-02-19T07:42:04.872Z,9.10
2023-02-19T07:43:06.577Z,9.10
2023-02-19T07:44:08.371Z,9.20
2023-02-19T07:45:10.281Z,9.20
2023-02-19T07:46:14.161Z,9.20
2023-02-19T07:47:15.920Z,9.20
2023-02-19T07:48:18.228Z,9.30
2023-02-19T07:49:19.976Z,9.30
2023-02-19T07:50:21.637Z,9.30
2023-02-19T07:51:23.751Z,9.30
2023-02-19T07:52:25.668Z,9.30
2023-02-19T07:53:28.065Z,9.30
2023-02-19T07:54:29.768Z,9.30
2023-02-19T07:55:32.481Z,9.40
2023-02-19T07:56:34.289Z,9.40
2023-02-19T07:57:35.984Z,9.40
2023-02-19T07:58:38.355Z,9.40
2023-02-19T07:59:41.109Z,9.40
2023-02-19T08:00:43.009Z,9.50
2023-02-19T08:02:03.369Z,9.50
2023-02-19T08:03:05.914Z,9.50
2023-02-19T08:04:07.784Z,9.50
2023-02-19T08:05:10.612Z,9.50
2023-02-19T08:06:12.922Z,9.60
2023-02-19T08:07:14.604Z,9.60
2023-02-19T08:08:16.906Z,9.50
2023-02-19T08:09:18.908Z,9.60
2023-02-19T08:10:39.659Z,9.60
2023-02-19T08:12:00.027Z,9.60
2023-02-19T08:13:20.371Z,9.60
2023-02-19T08:14:27.160Z,9.60
2023-02-19T08:15:28.918Z,9.60
2023-02-19T08:16:42.452Z,9.70
2023-02-19T08:17:44.870Z,9.70
2023-02-19T08:18:47.774Z,9.70
2023-02-19T08:19:49.516Z,9.70
2023-02-19T08:20:51.589Z,9.70
2023-02-19T08:21:53.672Z,9.80
2023-02-19T08:22:55.434Z,9.70
2023-02-19T08:23:57.110Z,9.80
2023-02-19T08:24:58.852Z,9.70
2023-02-19T08:26:02.290Z,9.80
2023-02-19T08:27:04.030Z,9.80
2023-02-19T08:28:07.053Z,9.80
2023-02-19T08:29:09.037Z,9.80
2023-02-19T08:30:11.267Z,9.90
2023-02-19T08:31:13.468Z,9.90
2023-02-19T08:32:15.444Z,9.90
2023-02-19T08:33:20.264Z,9.90
2023-02-19T08:34:22.122Z,10.00
2023-02-19T08:35:24.058Z,10.00
2023-02-19T08:36:26.266Z,9.90
2023-02-19T08:37:27.988Z,9.90
2023-02-19T08:38:29.672Z,9.90
2023-02-19T08:39:32.960Z,9.90
2023-02-19T08:40:36.747Z,9.90
2023-02-19T08:41:38.540Z,9.90
2023-02-19T08:42:40.447Z,9.90
2023-02-19T08:43:42.902Z,9.80
2023-02-19T08:44:44.569Z,9.90
2023-02-19T08:45:47.516Z,9.90
2023-02-19T08:46:49.305Z,9.90
2023-02-19T08:47:51.115Z,9.80
2023-02-19T08:48:52.879Z,9.80
2023-02-19T08:49:54.618Z,9.80
2023-02-19T08:51:05.265Z,9.90
2023-02-19T08:52:06.985Z,9.80
2023-02-19T08:53:08.756Z,9.80
2023-02-19T08:54:10.477Z,9.80
2023-02-19T08:55:13.313Z,9.80
2023-02-19T08:56:17.493Z,9.90
2023-02-19T08:57:19.386Z,9.90
2023-02-19T08:58:21.900Z,9.80
2023-02-19T08:59:23.784Z,9.80
2023-02-19T09:00:25.702Z,9.80
2023-02-19T09:01:27.460Z,9.80
2023-02-19T09:02:30.152Z,9.80
2023-02-19T09:03:31.938Z,9.80
2023-02-19T09:04:33.703Z,9.80
2023-02-19T09:05:35.535Z,9.80
2023-02-19T09:06:39.128Z,9.90
2023-02-19T09:07:41.840Z,9.80
2023-02-19T09:08:43.785Z,9.80
2023-02-19T09:09:45.521Z,9.80
2023-02-19T09:10:58.876Z,9.80
2023-02-19T09:12:00.541Z,9.80
2023-02-19T09:13:02.729Z,9.80
2023-02-19T09:14:07.452Z,9.80
2023-02-19T09:15:09.766Z,9.80
2023-02-19T09:16:12.090Z,9.70
2023-02-19T09:17:13.833Z,9.80
2023-02-19T09:18:15.564Z,9.70
2023-02-19T09:19:17.272Z,9.70
2023-02-19T09:20:19.471Z,9.70
2023-02-19T09:21:21.200Z,9.70
2023-02-19T09:22:22.916Z,9.70
2023-02-19T09:23:24.685Z,9.70
2023-02-19T09:24:26.837Z,9.70
2023-02-19T09:25:28.497Z,9.70
2023-02-19T09:26:30.232Z,9.70
2023-02-19T09:27:32.268Z,9.70
2023-02-19T09:28:34.121Z,9.70
2023-02-19T09:29:35.852Z,9.70
2023-02-19T09:30:37.666Z,9.80
2023-02-19T09:31:39.535Z,9.80
2023-02-19T09:32:41.292Z,9.80
2023-02-19T09:33:48.137Z,9.80
2023-02-19T09:34:49.928Z,9.90
2023-02-19T09:35:51.701Z,9.90
2023-02-19T09:36:54.234Z,9.90
2023-02-19T09:37:58.831Z,9.90
2023-02-19T09:39:02.087Z,9.90
2023-02-19T09:40:03.930Z,9.90
2023-02-19T09:41:16.013Z,9.90
2023-02-19T09:42:27.292Z,9.90
2023-02-19T09:43:29.957Z,10.00
2023-02-19T09:44:40.523Z,10.00
2023-02-19T09:45:42.477Z,10.00
2023-02-19T09:46:45.799Z,10.00
2023-02-19T09:47:47.968Z,10.00
2023-02-19T09:48:49.734Z,10.00
2023-02-19T09:50:02.751Z,10.10
2023-02-19T09:51:05.233Z,10.10
2023-02-19T09:52:22.373Z,10.10
2023-02-19T09:53:29.554Z,10.10
2023-02-19T09:54:33.906Z,10.20
2023-02-19T09:55:43.386Z,10.20
2023-02-19T09:56:45.185Z,10.30
2023-02-19T09:57:48.616Z,10.30
2023-02-19T09:58:53.870Z,10.30
2023-02-19T10:00:31.476Z,10.30
2023-02-19T10:01:38.334Z,10.30
2023-02-19T10:02:40.101Z,10.40
2023-02-19T10:03:46.970Z,10.30
2023-02-19T10:04:51.262Z,10.30
2023-02-19T10:05:53.979Z,10.30
2023-02-19T10:07:03.349Z,10.30
2023-02-19T10:08:13.065Z,10.30
2023-02-19T10:09:22.702Z,10.40
2023-02-19T10:10:29.742Z,10.40
2023-02-19T10:11:31.696Z,10.40
2023-02-19T10:12:35.155Z,10.40
2023-02-19T10:13:43.868Z,10.50
2023-02-19T10:14:49.975Z,10.50
2023-02-19T10:15:57.645Z,10.50
2023-02-19T10:17:03.492Z,10.60
2023-02-19T10:18:08.835Z,10.60
2023-02-19T10:19:16.317Z,10.70
2023-02-19T10:20:24.626Z,10.70
2023-02-19T10:21:27.953Z,10.70
2023-02-19T10:22:31.426Z,10.80
2023-02-19T10:23:33.675Z,10.80
2023-02-19T10:24:38.140Z,10.90
2023-02-19T10:25:54.397Z,10.90
2023-02-19T10:26:56.680Z,10.90
2023-02-19T10:28:00.164Z,10.90
2023-02-19T10:29:03.163Z,11.00
2023-02-19T10:30:06.065Z,11.00
2023-02-19T10:31:21.045Z,11.00
2023-02-19T10:32:25.255Z,11.10
2023-02-19T10:33:27.597Z,11.00
2023-02-19T10:34:29.262Z,11.00
2023-02-19T10:35:36.417Z,11.10
2023-02-19T10:36:40.996Z,11.10
2023-02-19T10:37:48.838Z,11.20
2023-02-19T10:38:50.976Z,11.10
2023-02-19T10:39:52.752Z,11.10
2023-02-19T10:41:13.554Z,11.10
2023-02-19T10:42:23.189Z,11.20
2023-02-19T10:43:33.688Z,11.20
2023-02-19T10:44:47.439Z,11.20
2023-02-19T10:45:50.523Z,11.10
2023-02-19T10:46:55.494Z,11.10
2023-02-19T10:47:57.698Z,11.10
2023-02-19T10:49:05.797Z,11.10
2023-02-19T10:50:16.605Z,11.10
2023-02-19T10:51:21.733Z,11.00
2023-02-19T10:52:34.367Z,11.00
2023-02-19T10:53:46.134Z,11.00
2023-02-19T10:55:11.368Z,11.10
2023-02-19T10:56:14.685Z,11.10
2023-02-19T10:57:16.778Z,11.10
2023-02-19T10:58:30.403Z,11.10
2023-02-19T10:59:32.087Z,11.20
2023-02-19T11:00:33.786Z,11.30
2023-02-19T11:01:35.536Z,11.30
2023-02-19T11:02:37.487Z,11.30
2023-02-19T11:03:39.474Z,11.40
2023-02-19T11:04:41.432Z,11.30
2023-02-19T11:06:03.108Z,11.40
2023-02-19T11:07:15.134Z,11.40
2023-02-19T11:08:24.260Z,11.40
2023-02-19T11:09:32.665Z,11.40
2023-02-19T11:10:40.634Z,11.50
2023-02-19T11:11:42.349Z,11.50
2023-02-19T11:12:49.187Z,11.60
2023-02-19T11:13:51.384Z,11.60
2023-02-19T11:14:53.713Z,11.60
2023-02-19T11:15:56.214Z,11.60
2023-02-19T11:16:59.909Z,11.70
2023-02-19T11:18:31.743Z,11.70
2023-02-19T11:19:36.747Z,11.70
2023-02-19T11:20:59.474Z,11.70
2023-02-19T11:22:01.861Z,11.70
2023-02-19T11:23:16.181Z,11.70
2023-02-19T11:24:38.396Z,11.70
2023-02-19T11:25:49.447Z,11.70
2023-02-19T11:26:51.440Z,11.60
2023-02-19T11:28:20.919Z,11.60
2023-02-19T11:29:24.573Z,11.60
2023-02-19T11:30:42.145Z,11.50
2023-02-19T11:31:44.114Z,11.50
2023-02-19T11:32:45.968Z,11.50
2023-02-19T11:34:26.129Z,11.40
2023-02-19T11:35:28.161Z,11.50
2023-02-19T11:36:35.775Z,11.50
2023-02-19T11:37:46.952Z,11.50
2023-02-19T11:38:48.763Z,11.50
2023-02-19T11:39:51.767Z,11.50
2023-02-19T11:41:34.589Z,11.60
2023-02-19T11:42:51.094Z,11.50
2023-02-19T11:44:25.638Z,11.50
2023-02-19T11:45:46.931Z,11.50
2023-02-19T11:47:13.331Z,11.50
2023-02-19T11:48:39.147Z,11.40
2023-02-19T11:50:03.874Z,11.50
2023-02-19T11:51:21.351Z,11.50
2023-02-19T11:52:46.233Z,11.50
2023-02-19T11:53:55.486Z,11.50
2023-02-19T11:55:17.916Z,11.50
2023-02-19T11:56:24.812Z,11.50
2023-02-19T11:57:55.525Z,11.40
2023-02-19T11:59:17.120Z,11.40
2023-02-19T12:00:24.941Z,11.40
2023-02-19T12:01:55.293Z,11.40
2023-02-19T12:03:21.650Z,11.40
2023-02-19T12:04:41.437Z,11.40
2023-02-19T12:05:55.183Z,11.40
2023-02-19T12:07:27.894Z,11.50
2023-02-19T12:08:50.976Z,11.50
2023-02-19T12:09:52.686Z,11.50
2023-02-19T12:11:16.917Z,11.60
2023-02-19T12:12:51.560Z,11.60
2023-02-19T12:14:25.481Z,11.50
2023-02-19T12:15:48.582Z,11.50
2023-02-19T12:17:01.841Z,11.50
2023-02-19T12:18:40.394Z,11.50
2023-02-19T12:19:58.906Z,11.50
2023-02-19T12:21:06.351Z,11.50
2023-02-19T12:22:31.256Z,11.50
2023-02-19T12:24:06.910Z,11.50
2023-02-19T12:25:34.885Z,11.50
2023-02-19T12:27:00.921Z,11.50
2023-02-19T12:28:17.231Z,11.50
2023-02-19T12:29:37.008Z,11.50
2023-02-19T12:31:06.621Z,11.50
2023-02-19T12:32:09.897Z,11.60
2023-02-19T12:33:57.225Z,11.60
2023-02-19T12:35:26.245Z,11.70
2023-02-19T12:36:28.264Z,11.70
2023-02-19T12:37:42.935Z,11.70
2023-02-19T12:39:05.440Z,11.70
2023-02-19T12:40:30.090Z,11.80
2023-02-19T12:41:58.537Z,11.70
2023-02-19T12:43:19.737Z,11.70
2023-02-19T12:44:50.833Z,11.60
2023-02-19T12:46:04.857Z,11.60
2023-02-19T12:47:08.730Z,11.60
2023-02-19T12:48:20.638Z,11.60
2023-02-19T12:49:39.100Z,11.60
2023-02-19T12:50:43.290Z,11.60
2023-02-19T12:51:55.193Z,11.60
2023-02-19T12:53:05.384Z,11.70
2023-02-19T12:54:33.143Z,11.70
2023-02-19T12:55:42.908Z,11.70
2023-02-19T12:56:52.378Z,11.80
2023-02-19T12:57:55.447Z,11.80
2023-02-19T12:59:03.888Z,11.80
2023-02-19T13:00:39.404Z,11.90
2023-02-19T13:01:50.737Z,11.80
2023-02-19T13:03:20.751Z,11.90
2023-02-19T13:04:45.136Z,11.90
2023-02-19T13:06:08.231Z,11.90
2023-02-19T13:07:30.242Z,12.00
2023-02-19T13:09:03.441Z,12.10
2023-02-19T13:10:24.748Z,12.10
2023-02-19T13:11:36.802Z,12.10
2023-02-19T13:12:43.055Z,12.00
2023-02-19T13:14:26.521Z,12.00
2023-02-19T13:15:36.731Z,11.90
2023-02-19T13:16:42.211Z,11.90
2023-02-19T13:17:45.493Z,11.80
2023-02-19T13:18:55.995Z,11.80
2023-02-19T13:20:13.462Z,11.80
2023-02-19T13:21:35.854Z,11.70
2023-02-19T13:23:05.385Z,11.60
2023-02-19T13:24:17.245Z,11.60
2023-02-19T13:25:19.847Z,11.60
2023-02-19T13:26:39.945Z,11.60
2023-02-19T13:27:56.800Z,11.50
2023-02-19T13:29:36.702Z,11.50
2023-02-19T13:30:49.317Z,11.60
2023-02-19T13:31:57.644Z,11.60
2023-02-19T13:33:02.879Z,11.60
2023-02-19T13:34:11.024Z,11.60
2023-02-19T13:35:24.550Z,11.70
2023-02-19T13:36:28.416Z,11.70
2023-02-19T13:37:36.492Z,11.70
2023-02-19T13:38:41.899Z,11.70
2023-02-19T13:39:55.114Z,11.80
2023-02-19T13:40:59.141Z,11.80
2023-02-19T13:42:01.529Z,11.80
2023-02-19T13:43:06.958Z,11.80
2023-02-19T13:44:21.820Z,11.70
2023-02-19T13:45:53.988Z,11.60
2023-02-19T13:46:56.219Z,11.60
2023-02-19T13:47:58.116Z,11.50
2023-02-19T13:49:27.508Z,11.40
2023-02-19T13:50:32.454Z,11.40
2023-02-19T13:51:34.525Z,11.40
2023-02-19T13:52:39.398Z,11.30
2023-02-19T13:53:41.569Z,11.30
2023-02-19T13:54:43.374Z,11.30
2023-02-19T13:55:50.890Z,11.30
2023-02-19T13:57:14.576Z,11.30
2023-02-19T13:58:52.973Z,11.20
2023-02-19T13:59:58.338Z,11.20
2023-02-19T14:01:11.881Z,11.20
2023-02-19T14:02:23.070Z,11.20
2023-02-19T14:03:28.611Z,11.20
2023-02-19T14:04:50.173Z,11.20
2023-02-19T14:06:06.075Z,11.20
2023-02-19T14:07:21.947Z,11.20
2023-02-19T14:08:52.896Z,11.10
2023-02-19T14:09:55.352Z,11.10
2023-02-19T14:10:58.459Z,11.10
2023-02-19T14:12:16.032Z,11.10
2023-02-19T14:13:52.258Z,11.10
2023-02-19T14:14:55.269Z,11.10
2023-02-19T14:15:57.033Z,11.10
2023-02-19T14:17:08.091Z,11.10
2023-02-19T14:18:45.589Z,11.10
2023-02-19T14:19:56.565Z,11.10
2023-02-19T14:21:14.240Z,11.10
2023-02-19T14:22:57.480Z,11.10
2023-02-19T14:24:00.170Z,11.10
2023-02-19T14:25:04.094Z,11.10
2023-02-19T14:26:07.646Z,11.10
2023-02-19T14:27:09.545Z,11.10
2023-02-19T14:28:17.431Z,11.10
2023-02-19T14:29:19.482Z,11.10
2023-02-19T14:30:23.851Z,11.10
2023-02-19T14:31:29.511Z,11.10
2023-02-19T14:32:31.338Z,11.00
2023-02-19T14:33:34.791Z,11.10
2023-02-19T14:34:36.496Z,11.10
2023-02-19T14:35:44.339Z,11.10
2023-02-19T14:37:00.970Z,11.10
2023-02-19T14:38:04.298Z,11.10
2023-02-19T14:39:24.478Z,11.20
2023-02-19T14:40:41.561Z,11.10
2023-02-19T14:41:48.127Z,11.20
2023-02-19T14:42:55.838Z,11.20
2023-02-19T14:44:00.861Z,11.20
2023-02-19T14:45:06.342Z,11.20